Time;durP1;ratioP1;P1;durP2;ratioP2;P2;SDS_P1;SDS_P2;PMS_P1;PMS_P2;Temp;Humidity;BMP_temperature;BMP_pressure;BME280_temperature;BME280_humidity;BME280_pressure;Samples;Min_cycle;Max_cycle;Signal;HPM_P1;HPM_P2
2022/08/15 00:00:49;;;;;;;19.75;11.07;;;;;;;18.19;65.23;100410.91;4993131;28;20043;-78
2022/08/15 00:03:17;;;;;;;15.45;11.45;;;;;;;18.16;65.32;100429.44;4981727;28;21183;-78
2022/08/15 00:05:43;;;;;;;15.45;10.18;;;;;;;18.10;65.47;100421.72;4982308;28;20042;-79
2022/08/15 00:08:10;;;;;;;19.40;11.23;;;;;;;17.98;65.24;100418.56;4978429;28;20586;-80
2022/08/15 00:10:36;;;;;;;16.40;10.30;;;;;;;17.89;65.59;100417.00;4992731;28;20129;-80
2022/08/15 00:13:17;;;;;;;15.90;11.05;;;;;;;17.82;65.77;100419.84;4977027;28;20561;-78
2022/08/15 00:15:46;;;;;;;19.23;11.33;;;;;;;17.86;65.85;100429.41;4978838;28;20129;-79
2022/08/15 00:18:13;;;;;;;17.42;11.02;;;;;;;17.82;66.16;100443.56;4978367;28;20278;-80
2022/08/15 00:20:40;;;;;;;19.92;11.70;;;;;;;17.79;66.27;100439.25;4978776;28;20094;-80
2022/08/15 00:23:11;;;;;;;17.92;11.45;;;;;;;17.78;66.66;100442.78;4980922;28;20042;-81
2022/08/15 00:25:37;;;;;;;20.13;12.65;;;;;;;17.75;66.68;100434.97;4994591;28;20026;-81
2022/08/15 00:28:06;;;;;;;20.70;12.82;;;;;;;17.76;66.79;100440.19;4997074;28;20039;-79
2022/08/15 00:30:36;;;;;;;28.77;17.85;;;;;;;17.68;67.07;100426.41;5000965;28;20042;-81
2022/08/15 00:33:03;;;;;;;26.02;13.50;;;;;;;17.66;67.17;100438.72;4971873;28;20041;-79
2022/08/15 00:35:41;;;;;;;19.02;12.88;;;;;;;17.60;67.04;100424.00;4978960;28;20092;-79
2022/08/15 00:38:15;;;;;;;21.30;13.15;;;;;;;17.67;67.04;100444.84;4979705;28;20650;-81
2022/08/15 00:43:34;;;;;;;;;;;;;;;17.69;67.38;100450.94;4994219;28;20050;-79
2022/08/15 00:46:02;;;;;;;20.75;13.25;;;;;;;17.61;67.27;100441.50;4993587;28;19918;-79
2022/08/15 00:48:43;;;;;;;24.05;13.55;;;;;;;17.65;67.17;100459.84;4979702;28;20104;-79
2022/08/15 00:51:26;;;;;;;20.60;12.63;;;;;;;17.61;67.11;100452.03;4978326;28;20034;-79
2022/08/15 00:54:20;;;;;;;19.77;13.32;;;;;;;17.52;67.08;100441.75;4994977;28;20085;-79
2022/08/15 00:57:17;;;;;;;22.60;14.50;;;;;;;17.53;67.26;100442.63;4994991;28;20043;-78
2022/08/15 00:59:48;;;;;;;23.15;15.27;;;;;;;17.50;67.19;100454.06;4982834;28;20062;-79
2022/08/15 01:02:17;;;;;;;27.52;16.48;;;;;;;17.44;67.42;100451.59;4983371;28;20034;-80
2022/08/15 01:04:44;;;;;;;27.58;15.20;;;;;;;17.45;67.47;100459.47;4995982;28;20042;-80
2022/08/15 01:07:12;;;;;;;27.17;15.02;;;;;;;17.45;67.50;100462.09;4980617;28;20035;-79
2022/08/15 01:09:39;;;;;;;23.25;15.15;;;;;;;17.40;67.31;100453.47;4980339;28;20064;-80
2022/08/15 01:12:07;;;;;;;25.50;13.90;;;;;;;17.42;67.31;100456.06;4982426;28;20052;-80
2022/08/15 01:14:35;;;;;;;20.80;14.70;;;;;;;17.31;67.20;100446.69;4982939;28;20061;-79
2022/08/15 01:17:01;;;;;;;26.15;13.73;;;;;;;17.37;67.49;100463.22;4997520;28;20321;-80
2022/08/15 01:19:33;;;;;;;26.80;15.90;;;;;;;17.34;67.70;100463.28;4997744;28;20503;-79
2022/08/15 01:22:35;;;;;;;25.80;14.55;;;;;;;17.26;67.93;100452.97;4981157;28;20034;-81
2022/08/15 01:25:30;;;;;;;24.40;14.43;;;;;;;17.34;68.00;100474.66;4999548;28;20042;-80
2022/08/15 01:28:07;;;;;;;26.77;15.43;;;;;;;17.28;68.16;100469.59;4974924;28;20056;-81
2022/08/15 01:30:41;;;;;;;34.55;20.40;;;;;;;17.20;68.14;100450.50;4983646;28;20189;-79
2022/08/15 01:33:08;;;;;;;34.33;21.55;;;;;;;17.31;68.20;100467.72;5019997;28;20033;-80
2022/08/15 01:35:34;;;;;;;22.77;13.60;;;;;;;17.28;68.40;100459.91;4991834;28;20026;-80
2022/08/15 01:38:03;;;;;;;20.73;16.25;;;;;;;17.26;68.34;100464.34;5023426;28;20050;-78
2022/08/15 01:41:08;;;;;;;28.50;16.92;;;;;;;17.24;68.39;100474.03;5004287;28;20046;-79
2022/08/15 01:43:42;;;;;;;30.15;18.70;;;;;;;17.14;68.35;100468.16;4994221;28;20050;-79
2022/08/15 01:46:10;;;;;;;35.67;23.38;;;;;;;17.10;68.30;100460.41;5006383;28;20046;-78
2022/08/15 01:48:47;;;;;;;36.10;24.08;;;;;;;17.05;68.46;100465.78;4991132;28;20046;-80
2022/08/15 01:51:17;;;;;;;39.60;24.73;;;;;;;17.10;68.59;100477.00;4969594;28;20421;-79
2022/08/15 01:53:56;;;;;;;38.15;27.77;;;;;;;17.00;68.63;100465.03;4984198;28;20057;-80
2022/08/15 01:56:29;;;;;;;38.45;24.55;;;;;;;16.97;68.97;100457.22;4978887;28;20034;-80
2022/08/15 01:58:58;;;;;;;34.55;24.88;;;;;;;17.02;69.07;100468.47;4980283;28;20054;-81
2022/08/15 02:01:58;;;;;;;46.80;27.67;;;;;;;17.07;69.48;100481.50;5004218;28;20127;-83
2022/08/15 02:04:30;;;;;;;40.97;25.15;;;;;;;16.99;69.50;100463.28;5001149;28;20061;-79
2022/08/15 02:07:00;;;;;;;40.35;24.90;;;;;;;17.12;69.80;100483.09;4992779;28;20055;-80
2022/08/15 02:09:28;;;;;;;38.50;25.85;;;;;;;16.86;69.84;100439.03;4999543;28;20055;-82
2022/08/15 02:11:56;;;;;;;34.05;25.30;;;;;;;17.08;69.87;100473.59;4979771;28;20867;-79
2022/08/15 02:14:23;;;;;;;39.42;26.88;;;;;;;17.05;69.71;100478.91;4993127;28;20050;-80
2022/08/15 02:16:49;;;;;;;43.65;27.98;;;;;;;17.05;69.52;100478.03;4993757;28;20702;-81
2022/08/15 02:19:16;;;;;;;43.08;27.27;;;;;;;17.08;69.56;100484.09;5016289;28;20062;-80
2022/08/15 02:21:45;;;;;;;31.30;23.00;;;;;;;17.14;69.35;100489.19;5002250;28;20022;-79
2022/08/15 02:24:18;;;;;;;35.90;23.23;;;;;;;17.12;69.25;100480.47;5005050;28;20042;-82
2022/08/15 02:26:49;;;;;;;35.33;23.55;;;;;;;17.17;69.18;100499.63;5018641;28;20031;-83
2022/08/15 02:29:15;;;;;;;36.63;25.17;;;;;;;17.05;69.16;100481.56;5018851;28;20038;-81
2022/08/15 02:31:43;;;;;;;37.63;23.92;;;;;;;17.14;69.39;100507.59;5001557;28;20057;-80
2022/08/15 02:34:10;;;;;;;47.78;26.33;;;;;;;16.97;69.00;100465.97;5001576;28;20042;-79
2022/08/15 02:36:38;;;;;;;43.80;25.55;;;;;;;17.13;69.71;100497.13;5017735;28;20031;-81
2022/08/15 02:39:09;;;;;;;44.35;26.75;;;;;;;17.19;69.82;100493.47;5018009;28;20081;-80
2022/08/15 02:41:40;;;;;;;43.90;29.15;;;;;;;17.15;69.68;100484.81;5005518;28;20258;-79
2022/08/15 02:44:08;;;;;;;38.45;25.00;;;;;;;17.23;69.98;100493.34;5004150;28;20022;-80
2022/08/15 02:46:37;;;;;;;56.92;32.80;;;;;;;17.22;69.80;100480.25;4981096;28;20129;-80
2022/08/15 02:49:10;;;;;;;40.78;28.02;;;;;;;17.28;70.00;100504.63;4998610;28;20129;-80
2022/08/15 02:51:39;;;;;;;42.80;27.50;;;;;;;17.11;69.70;100470.84;4972166;28;20093;-80
2022/08/15 02:54:06;;;;;;;48.17;26.98;;;;;;;17.16;69.66;100474.25;5004854;28;20039;-80
2022/08/15 02:56:34;;;;;;;38.88;25.75;;;;;;;17.30;69.63;100492.31;4992921;28;20046;-80
2022/08/15 02:59:03;;;;;;;41.42;26.80;;;;;;;17.33;69.47;100483.44;4996760;28;20034;-80
2022/08/15 03:01:30;;;;;;;43.20;24.58;;;;;;;17.43;69.61;100494.63;5018079;28;20077;-82
2022/08/15 03:03:57;;;;;;;42.47;21.73;;;;;;;17.48;69.53;100486.59;5018194;28;20058;-81
2022/08/15 03:06:33;;;;;;;45.20;25.05;;;;;;;17.55;69.41;100491.66;4995367;28;20116;-82
2022/08/15 03:09:07;;;;;;;39.13;24.70;;;;;;;17.81;69.21;100518.16;4995157;28;20195;-81
2022/08/15 03:11:38;;;;;;;39.85;23.75;;;;;;;17.82;69.10;100497.06;4978159;28;20161;-81
2022/08/15 03:14:08;;;;;;;36.88;24.45;;;;;;;18.08;68.94;100513.94;4979482;28;20042;-82
2022/08/15 03:16:43;;;;;;;38.78;23.73;;;;;;;18.14;68.94;100497.09;4980828;28;20081;-81
2022/08/15 03:19:12;;;;;;;41.80;25.88;;;;;;;18.41;68.88;100515.63;5003987;28;20081;-79
2022/08/15 03:21:38;;;;;;;44.28;26.23;;;;;;;18.52;68.62;100509.13;5005951;28;20043;-81
2022/08/15 03:24:06;;;;;;;47.15;29.35;;;;;;;18.58;68.18;100505.44;4981147;28;20065;-81
2022/08/15 03:26:34;;;;;;;47.20;27.80;;;;;;;18.62;67.82;100511.44;4979807;28;20038;-82
2022/08/15 03:29:03;;;;;;;40.92;25.90;;;;;;;18.70;67.89;100512.09;4980368;28;20286;-79
2022/08/15 03:31:29;;;;;;;43.10;26.30;;;;;;;18.76;67.84;100516.28;4980097;28;20115;-80
2022/08/15 03:33:55;;;;;;;40.85;25.13;;;;;;;18.86;67.52;100512.47;4969171;28;20129;-82
2022/08/15 03:36:23;;;;;;;37.42;24.83;;;;;;;18.89;67.34;100500.94;5000688;28;20035;-81
2022/08/15 03:38:50;;;;;;;41.85;25.95;;;;;;;19.11;67.16;100522.22;5002108;28;20043;-79
2022/08/15 03:41:16;;;;;;;35.67;24.05;;;;;;;19.23;67.12;100510.41;5015723;28;20051;-80
2022/08/15 03:43:44;;;;;;;38.45;23.10;;;;;;;19.40;66.84;100504.56;4979078;28;20547;-80
2022/08/15 03:46:19;;;;;;;27.95;22.00;;;;;;;19.64;66.61;100516.03;4964047;28;20491;-81
2022/08/15 03:48:50;;;;;;;31.35;23.02;;;;;;;19.78;66.15;100514.69;4970439;28;20042;-80
2022/08/15 03:51:18;;;;;;;30.42;22.25;;;;;;;19.99;65.89;100516.59;4980282;28;20504;-79
2022/08/15 03:53:51;;;;;;;33.80;21.92;;;;;;;20.16;65.52;100518.59;4996142;28;20097;-80
2022/08/15 03:56:24;;;;;;;29.35;20.83;;;;;;;20.31;65.16;100497.78;4977222;28;20505;-81
2022/08/15 03:58:51;;;;;;;28.00;20.92;;;;;;;20.47;64.44;100498.06;4977804;28;20101;-81
2022/08/15 04:01:24;;;;;;;29.15;20.80;;;;;;;20.58;64.12;100492.34;4995949;28;20051;-79
2022/08/15 04:03:52;;;;;;;27.73;19.83;;;;;;;20.74;64.12;100511.13;4980901;28;20133;-80
2022/08/15 04:06:23;;;;;;;26.80;20.63;;;;;;;20.80;63.29;100507.41;4994083;28;20056;-81
2022/08/15 04:08:52;;;;;;;25.15;18.73;;;;;;;20.61;63.66;100464.00;4953210;28;20062;-82
2022/08/15 04:11:22;;;;;;;27.25;20.33;;;;;;;21.03;63.44;100494.09;4977975;28;20450;-81
2022/08/15 04:13:49;;;;;;;25.33;20.63;;;;;;;21.20;63.09;100485.41;4984745;28;20097;-82
2022/08/15 04:16:17;;;;;;;25.67;18.98;;;;;;;21.61;62.50;100504.94;4977339;28;20049;-80
2022/08/15 04:18:44;;;;;;;25.30;20.50;;;;;;;21.80;61.81;100494.38;4978614;28;20502;-81
2022/08/15 04:21:11;;;;;;;22.27;18.48;;;;;;;22.04;61.63;100507.44;4975219;28;20046;-81
2022/08/15 04:23:40;;;;;;;26.73;20.13;;;;;;;22.08;60.74;100493.97;4983497;28;20100;-82
2022/08/15 04:26:07;;;;;;;25.25;19.33;;;;;;;22.29;60.84;100496.53;4953060;28;20065;-81
2022/08/15 04:28:33;;;;;;;26.05;19.70;;;;;;;22.32;60.22;100493.75;4976352;28;20513;-81
2022/08/15 04:31:04;;;;;;;27.13;19.38;;;;;;;22.46;60.03;100490.50;4984619;28;20469;-82
2022/08/15 04:33:32;;;;;;;22.20;19.60;;;;;;;22.60;59.70;100504.91;4982302;28;20073;-80
2022/08/15 04:36:09;;;;;;;23.45;19.90;;;;;;;22.57;59.25;100495.28;4992747;28;20042;-81
2022/08/15 04:38:39;;;;;;;21.30;19.10;;;;;;;22.65;59.29;100495.78;4978922;28;20050;-81
2022/08/15 04:41:08;;;;;;;22.88;18.80;;;;;;;22.89;58.98;100495.50;4977864;28;20046;-83
2022/08/15 04:43:36;;;;;;;29.33;20.50;;;;;;;23.08;58.50;100490.13;4978689;28;20121;-81
2022/08/15 04:46:05;;;;;;;26.70;20.70;;;;;;;23.41;57.73;100502.66;4971856;28;20386;-79
2022/08/15 04:48:31;;;;;;;24.75;20.48;;;;;;;23.64;57.43;100492.63;4982571;28;20378;-82
2022/08/15 04:51:04;;;;;;;30.58;20.55;;;;;;;23.86;57.04;100489.69;4994040;28;20046;-79
2022/08/15 04:53:46;;;;;;;25.88;19.48;;;;;;;24.00;56.39;100474.84;5006479;28;20050;-82
2022/08/15 04:56:13;;;;;;;23.42;18.67;;;;;;;24.28;55.84;100489.25;5005171;28;21602;-82
2022/08/15 04:58:40;;;;;;;28.10;19.80;;;;;;;24.13;55.12;100428.03;5012748;28;20043;-80
2022/08/15 05:01:12;;;;;;;20.80;18.33;;;;;;;24.52;54.80;100465.75;5001097;28;20073;-80
2022/08/15 05:04:02;;;;;;;24.00;17.70;;;;;;;24.71;54.13;100457.63;5002197;28;20144;-81
2022/08/15 05:06:29;;;;;;;24.13;19.08;;;;;;;25.00;53.06;100472.81;4983922;28;20046;-81
2022/08/15 05:08:56;;;;;;;24.92;20.05;;;;;;;25.13;53.15;100468.47;4997101;28;20060;-81
2022/08/15 05:11:46;;;;;;;29.40;20.25;;;;;;;25.41;52.37;100480.97;4984886;28;20050;-81
2022/08/15 05:14:13;;;;;;;22.85;17.92;;;;;;;25.49;51.98;100483.22;5006958;28;20037;-79
2022/08/15 05:16:39;;;;;;;21.95;16.88;;;;;;;25.53;51.58;100481.25;5006513;28;20053;-79
2022/08/15 05:19:06;;;;;;;27.85;21.35;;;;;;;25.66;51.45;100487.50;4997857;28;20069;-84
2022/08/15 05:21:36;;;;;;;24.00;18.75;;;;;;;25.84;51.16;100488.19;4967353;28;20434;-81
2022/08/15 05:24:02;;;;;;;24.52;18.65;;;;;;;26.06;50.29;100489.50;4989048;28;20038;-80
2022/08/15 05:26:30;;;;;;;20.02;17.13;;;;;;;26.41;49.37;100480.25;4981077;28;20102;-79
2022/08/15 05:28:56;;;;;;;20.58;16.30;;;;;;;26.90;49.61;100468.16;4979288;28;20150;-79
2022/08/15 05:31:22;;;;;;;22.77;15.10;;;;;;;28.21;48.46;100452.03;4986216;28;20052;-82
2022/08/15 05:33:52;;;;;;;22.15;15.10;;;;;;;29.82;45.34;100455.94;5000021;28;20510;-81
2022/08/15 05:36:20;;;;;;;19.48;15.57;;;;;;;31.38;42.12;100469.13;4999452;28;20042;-80
2022/08/15 05:38:50;;;;;;;23.15;15.25;;;;;;;32.47;39.91;100450.72;4981508;28;20169;-80
2022/08/15 05:41:44;;;;;;;20.48;14.75;;;;;;;33.71;37.00;100449.94;4981121;28;20101;-79
2022/08/15 05:44:09;;;;;;;17.85;13.25;;;;;;;35.38;36.02;100457.66;4982461;28;20042;-81
2022/08/15 05:47:05;;;;;;;13.85;12.20;;;;;;;36.28;32.91;100459.09;4981803;28;20081;-80
2022/08/15 05:49:53;;;;;;;16.05;11.40;;;;;;;36.98;31.81;100458.81;4980984;28;20053;-81
2022/08/15 05:52:25;;;;;;;14.00;11.63;;;;;;;38.03;29.89;100467.88;4967804;28;20075;-80
2022/08/15 05:54:52;;;;;;;13.60;11.48;;;;;;;38.61;29.15;100456.66;4981603;28;20042;-80
2022/08/15 05:57:27;;;;;;;14.50;10.77;;;;;;;39.74;27.50;100454.81;4981126;28;20173;-81
2022/08/15 06:00:04;;;;;;;14.40;9.65;;;;;;;40.95;25.98;100447.94;4988227;28;20057;-80
2022/08/15 06:02:51;;;;;;;12.85;9.13;;;;;;;41.28;24.82;100446.50;4991526;28;20042;-80
2022/08/15 06:05:27;;;;;;;16.58;9.70;;;;;;;42.00;22.70;100458.00;4990131;28;20794;-84
2022/08/15 06:07:55;;;;;;;10.02;8.40;;;;;;;42.09;22.76;100460.53;4982792;28;20042;-82
2022/08/15 06:10:36;;;;;;;12.70;9.10;;;;;;;41.43;22.08;100449.09;4987388;28;20045;-80
2022/08/15 06:13:11;;;;;;;11.20;8.40;;;;;;;41.47;22.86;100455.84;4984084;28;20046;-80
2022/08/15 06:16:17;;;;;;;12.82;9.10;;;;;;;42.64;20.91;100454.13;4965654;28;20053;-80
2022/08/15 06:18:50;;;;;;;10.20;8.30;;;;;;;43.72;20.40;100444.69;4956393;28;20514;-80
2022/08/15 06:21:53;;;;;;;12.48;8.02;;;;;;;43.74;18.87;100447.22;4967025;28;20157;-83
2022/08/15 06:24:28;;;;;;;8.70;7.10;;;;;;;44.03;19.32;100447.69;4983755;28;20101;-81
2022/08/15 06:27:17;;;;;;;13.05;7.20;;;;;;;44.85;17.72;100440.59;4999723;28;20047;-82
2022/08/15 06:29:59;;;;;;;9.15;6.65;;;;;;;45.38;17.32;100459.28;4989302;28;20057;-80
2022/08/15 06:32:47;;;;;;;12.18;6.43;;;;;;;45.84;16.89;100457.03;4993225;28;20280;-82
2022/08/15 06:35:28;;;;;;;11.55;6.95;;;;;;;46.76;15.79;100471.53;4998636;28;20030;-82
2022/08/15 06:38:21;;;;;;;9.50;5.63;;;;;;;47.57;14.96;100452.72;5015328;28;21152;-79
2022/08/15 06:41:00;;;;;;;9.95;5.82;;;;;;;46.82;14.80;100456.00;5001965;28;20042;-81
2022/08/15 06:43:27;;;;;;;11.13;6.60;;;;;;;47.69;14.83;100458.19;4981149;28;20035;-82
2022/08/15 06:46:05;;;;;;;9.93;6.25;;;;;;;48.73;13.96;100458.94;4998628;28;20070;-80
2022/08/15 06:48:36;;;;;;;11.63;5.35;;;;;;;49.43;13.42;100462.16;4997883;28;20061;-81
2022/08/15 06:51:06;;;;;;;10.63;5.80;;;;;;;50.18;12.43;100458.03;5010429;28;20050;-81
2022/08/15 06:53:52;;;;;;;7.07;4.97;;;;;;;50.32;11.51;100466.72;5004309;28;20145;-82
2022/08/15 06:56:31;;;;;;;6.88;4.70;;;;;;;49.52;11.77;100461.72;4965174;28;20108;-81
2022/08/15 06:59:05;;;;;;;7.60;4.47;;;;;;;50.00;11.47;100467.50;4996091;28;20054;-79
2022/08/15 07:01:58;;;;;;;8.13;4.43;;;;;;;49.53;11.15;100463.38;4975725;28;20049;-80
2022/08/15 07:04:46;;;;;;;7.85;4.53;;;;;;;48.90;11.50;100461.69;4986533;28;20061;-79
2022/08/15 07:07:45;;;;;;;8.65;5.20;;;;;;;49.51;11.54;100465.56;4998652;28;20046;-79
2022/08/15 07:10:32;;;;;;;;;;;;;;;48.81;11.82;100471.47;4978683;28;20051;-81
2022/08/15 07:13:11;;;;;;;9.95;4.53;;;;;;;46.13;12.65;100471.03;4998740;28;19921;-79
2022/08/15 07:15:58;;;;;;;9.52;4.43;;;;;;;43.87;14.06;100460.00;4998597;28;20046;-79
2022/08/15 07:18:34;;;;;;;11.52;5.45;;;;;;;42.96;15.88;100465.28;4997732;28;20085;-80
2022/08/15 07:21:07;;;;;;;6.07;4.70;;;;;;;43.99;14.64;100461.00;4987247;28;20054;-80
2022/08/15 07:23:36;;;;;;;9.93;5.47;;;;;;;42.55;14.92;100470.72;4998747;28;20084;-80
2022/08/15 07:26:09;;;;;;;9.15;4.63;;;;;;;41.96;15.41;100458.59;4979289;28;20051;-80
2022/08/15 07:28:42;;;;;;;6.97;4.45;;;;;;;41.53;16.53;100441.41;4978930;28;20090;-80
2022/08/15 07:31:43;;;;;;;;;;;;;;;;;;;;;
2022/08/15 07:34:29;;;;;;;8.65;5.18;;;;;;;42.71;16.30;100482.28;4995769;28;20081;-79
2022/08/15 07:37:01;;;;;;;10.07;5.07;;;;;;;42.20;16.33;100461.81;4974514;28;20046;-81
2022/08/15 07:39:37;;;;;;;10.15;4.65;;;;;;;43.39;15.85;100464.78;4997571;28;20039;-80
2022/08/15 07:42:15;;;;;;;7.70;4.93;;;;;;;43.37;15.34;100466.06;4981276;28;20125;-79
2022/08/15 07:44:54;;;;;;;7.00;5.20;;;;;;;42.38;15.82;100469.47;4978565;28;20046;-80
2022/08/15 07:47:25;;;;;;;11.13;4.97;;;;;;;43.66;15.64;100462.00;4997328;28;20050;-80
2022/08/15 07:50:04;;;;;;;12.95;4.50;;;;;;;46.19;13.83;100460.19;4978183;28;20085;-80
2022/08/15 07:52:32;;;;;;;6.90;4.10;;;;;;;47.83;12.73;100454.03;4999831;28;20042;-81
2022/08/15 07:55:13;;;;;;;7.13;4.20;;;;;;;47.06;11.91;100459.59;4983138;28;21558;-80
2022/08/15 07:57:41;;;;;;;5.28;3.95;;;;;;;45.66;12.66;100465.31;4997815;28;20133;-78
2022/08/15 08:00:11;;;;;;;5.70;3.88;;;;;;;44.94;12.76;100463.94;4982324;28;20046;-79
2022/08/15 08:03:09;;;;;;;4.45;3.53;;;;;;;43.93;13.33;100456.41;4966753;28;20503;-81
2022/08/15 08:06:01;;;;;;;9.93;4.70;;;;;;;42.64;14.71;100462.34;4996668;28;20054;-80
2022/08/15 08:08:53;;;;;;;8.95;3.92;;;;;;;42.95;13.95;100463.59;4990838;28;20062;-81
2022/08/15 08:11:25;;;;;;;6.15;3.25;;;;;;;41.43;15.49;100456.44;4997168;28;20101;-80
2022/08/15 08:14:17;;;;;;;6.22;2.85;;;;;;;41.37;15.10;100441.72;4980882;28;20137;-79
2022/08/15 08:16:52;;;;;;;6.53;2.90;;;;;;;43.16;13.86;100463.34;4996582;28;20042;-78
2022/08/15 08:19:26;;;;;;;7.10;3.20;;;;;;;43.67;13.52;100460.13;4998696;28;20053;-79
2022/08/15 08:22:19;;;;;;;7.07;3.58;;;;;;;43.13;13.53;100449.25;4989690;28;20053;-79
2022/08/15 08:25:25;;;;;;;4.45;2.83;;;;;;;43.40;13.93;100439.09;5022412;28;20058;-79
2022/08/15 08:27:57;;;;;;;9.23;2.90;;;;;;;44.93;12.97;100445.81;4988260;28;20054;-79
2022/08/15 08:30:29;;;;;;;4.85;3.00;;;;;;;45.38;12.15;100439.22;4992479;28;20070;-81
2022/08/15 08:33:19;;;;;;;4.95;2.97;;;;;;;43.12;13.27;100445.69;4988147;28;20155;-81
2022/08/15 08:36:34;;;;;;;6.72;2.72;;;;;;;42.12;14.58;100449.19;5001319;28;20108;-81
2022/08/15 08:39:35;;;;;;;11.07;3.60;;;;;;;42.88;14.84;100437.09;4996817;28;20034;-82
2022/08/15 08:42:10;;;;;;;7.38;3.50;;;;;;;43.84;13.38;100438.53;4990067;28;20497;-81
2022/08/15 08:44:40;;;;;;;7.82;3.03;;;;;;;44.90;13.78;100427.91;4988692;28;20394;-81
2022/08/15 08:47:26;;;;;;;10.13;3.10;;;;;;;47.07;12.16;100419.13;4993429;28;20086;-81
2022/08/15 08:50:10;;;;;;;9.40;3.50;;;;;;;48.48;11.24;100435.34;5022679;28;20034;-83
2022/08/15 08:52:52;;;;;;;3.47;2.70;;;;;;;49.88;10.23;100410.41;5004849;28;20046;-83
2022/08/15 08:55:47;;;;;;;6.18;3.20;;;;;;;49.25;10.18;100432.06;5009361;28;20066;-80
2022/08/15 08:58:45;;;;;;;6.10;3.10;;;;;;;49.47;9.19;100425.72;5003178;28;20144;-81
2022/08/15 09:01:17;;;;;;;4.10;2.75;;;;;;;49.50;9.84;100439.03;5001475;28;20030;-82
2022/08/15 09:03:51;;;;;;;6.22;3.13;;;;;;;49.66;9.49;100438.09;4992509;28;20049;-81
2022/08/15 09:06:29;;;;;;;5.15;2.42;;;;;;;49.38;9.25;100434.44;4985018;28;20038;-81
2022/08/15 09:09:15;;;;;;;10.65;3.20;;;;;;;49.25;9.02;100430.13;4961000;28;20129;-81
2022/08/15 09:11:48;;;;;;;4.07;3.13;;;;;;;49.96;9.02;100428.47;5001482;28;20038;-81
2022/08/15 09:14:27;;;;;;;7.25;3.00;;;;;;;50.18;9.04;100425.66;4958935;28;20078;-83
2022/08/15 09:16:58;;;;;;;5.50;3.40;;;;;;;48.96;9.37;100435.81;4990607;28;20089;-81
2022/08/15 09:19:26;;;;;;;5.25;3.30;;;;;;;47.09;10.00;100429.91;4988064;28;20047;-81
2022/08/15 09:21:52;;;;;;;5.38;2.88;;;;;;;46.61;10.27;100427.97;4985878;28;20050;-81
2022/08/15 09:24:22;;;;;;;5.20;3.30;;;;;;;46.24;10.59;100435.53;4999126;28;20109;-81
2022/08/15 09:27:02;;;;;;;5.40;3.28;;;;;;;46.45;10.39;100429.53;4984715;28;20403;-82
2022/08/15 09:29:43;;;;;;;7.90;3.55;;;;;;;45.27;11.66;100408.72;4998922;28;20109;-80
2022/08/15 09:32:29;;;;;;;7.18;3.90;;;;;;;43.86;12.14;100400.78;4985259;28;20073;-81
2022/08/15 09:35:33;;;;;;;6.53;3.47;;;;;;;42.94;13.45;100407.19;4982510;28;20057;-81
2022/08/15 09:38:21;;;;;;;8.88;3.15;;;;;;;42.63;13.26;100412.25;4982587;28;20958;-81
2022/08/15 09:41:17;;;;;;;3.78;3.17;;;;;;;41.86;13.17;100398.88;4985166;28;20051;-81
2022/08/15 09:44:06;;;;;;;6.88;4.03;;;;;;;42.11;13.73;100414.72;4985618;28;20046;-81
2022/08/15 09:47:02;;;;;;;8.48;4.10;;;;;;;42.34;14.21;100419.81;4968426;28;20057;-80
2022/08/15 09:49:34;;;;;;;6.05;3.50;;;;;;;43.73;13.34;100405.31;4983875;28;20042;-80
2022/08/15 09:52:47;;;;;;;4.75;3.65;;;;;;;44.27;12.56;100407.69;4985810;28;20046;-80
2022/08/15 09:55:22;;;;;;;6.45;4.00;;;;;;;43.64;13.13;100399.25;4986731;28;20092;-82
2022/08/15 09:57:52;;;;;;;7.18;3.60;;;;;;;43.83;13.88;100412.19;5021353;28;20042;-81
2022/08/15 10:00:28;;;;;;;4.32;3.75;;;;;;;44.39;12.99;100414.16;4996374;28;20509;-82
2022/08/15 10:03:05;;;;;;;4.45;4.05;;;;;;;44.25;12.38;100407.09;4973062;28;20473;-81
2022/08/15 10:06:10;;;;;;;6.82;4.38;;;;;;;42.96;13.82;100421.50;4984430;28;20507;-83
2022/08/15 10:08:55;;;;;;;6.38;4.40;;;;;;;41.90;14.62;100418.44;4979523;28;20066;-80
2022/08/15 10:11:47;;;;;;;7.35;4.70;;;;;;;41.65;14.72;100408.91;5005996;28;20053;-81
2022/08/15 10:14:20;;;;;;;7.38;5.22;;;;;;;42.45;14.83;100413.75;5010509;28;20070;-79
2022/08/15 10:16:52;;;;;;;8.43;5.10;;;;;;;42.42;14.88;100410.59;5006584;28;20043;-81
2022/08/15 10:19:39;;;;;;;6.30;4.82;;;;;;;43.64;13.23;100395.66;5007105;28;20034;-81
2022/08/15 10:22:22;;;;;;;11.60;5.20;;;;;;;43.93;13.69;100409.81;4994425;28;20105;-82
2022/08/15 10:25:18;;;;;;;5.97;5.22;;;;;;;43.08;13.82;100405.28;4995658;28;20526;-81
2022/08/15 10:28:09;;;;;;;8.95;6.38;;;;;;;42.47;14.05;100413.53;4982495;28;20171;-81
2022/08/15 10:30:45;;;;;;;8.52;6.28;;;;;;;42.21;14.23;100398.78;4981143;28;20794;-80
2022/08/15 10:33:45;;;;;;;13.73;9.50;;;;;;;42.19;14.38;100411.81;4997089;28;20509;-81
2022/08/15 10:36:17;;;;;;;17.10;14.95;;;;;;;40.74;14.80;100386.09;4978429;28;20062;-79
2022/08/15 10:38:50;;;;;;;16.45;13.35;;;;;;;40.32;14.56;100413.22;5011238;28;20043;-80
2022/08/15 10:41:47;;;;;;;13.85;12.30;;;;;;;39.25;15.93;100395.56;4985654;28;20085;-82
2022/08/15 10:44:51;;;;;;;12.32;10.68;;;;;;;39.23;16.01;100400.34;4974306;28;20137;-79
2022/08/15 10:47:21;;;;;;;16.63;13.77;;;;;;;38.77;16.81;100401.28;4996119;28;20038;-82
2022/08/15 10:50:16;;;;;;;17.33;14.57;;;;;;;38.41;16.56;100398.22;4959247;28;20421;-80
2022/08/15 10:53:27;;;;;;;21.63;17.55;;;;;;;37.60;17.37;100397.66;4996130;28;20050;-81
2022/08/15 10:56:07;;;;;;;17.15;15.30;;;;;;;37.57;17.19;100387.16;5003102;28;20518;-81
2022/08/15 10:58:34;;;;;;;14.80;12.33;;;;;;;37.59;17.56;100394.09;5003392;28;20042;-81
2022/08/15 11:01:06;;;;;;;11.68;9.85;;;;;;;37.37;17.61;100390.25;4996568;28;20296;-80
2022/08/15 11:03:48;;;;;;;10.30;8.40;;;;;;;36.38;18.09;100393.91;4982216;28;20477;-80
2022/08/15 11:06:18;;;;;;;10.65;8.70;;;;;;;35.70;19.68;100385.78;5003525;28;21460;-81
2022/08/15 11:08:58;;;;;;;12.27;8.65;;;;;;;35.31;20.16;100405.22;4996617;28;20050;-81
2022/08/15 11:11:27;;;;;;;12.38;8.52;;;;;;;34.94;20.22;100401.78;4999643;28;20035;-81
2022/08/15 11:14:00;;;;;;;11.07;8.60;;;;;;;34.73;21.34;100388.63;4997085;28;20074;-80
2022/08/15 11:16:38;;;;;;;9.52;8.05;;;;;;;35.05;20.85;100403.38;4997299;28;20048;-81
2022/08/15 11:19:20;;;;;;;11.65;8.90;;;;;;;34.54;20.63;100408.53;4983521;28;20038;-80
2022/08/15 11:21:55;;;;;;;13.48;9.07;;;;;;;33.63;21.84;100394.91;4999892;28;20092;-81
2022/08/15 11:24:37;;;;;;;13.50;8.73;;;;;;;33.27;22.63;100402.81;4982506;28;20074;-81
2022/08/15 11:27:24;;;;;;;11.05;9.20;;;;;;;33.07;23.17;100404.75;4988376;28;20122;-79
2022/08/15 11:29:53;;;;;;;13.25;9.30;;;;;;;32.94;23.76;100405.06;4994780;28;20059;-81
2022/08/15 11:32:29;;;;;;;11.32;8.52;;;;;;;32.54;24.13;100392.63;5016888;28;20117;-81
2022/08/15 11:34:57;;;;;;;9.65;8.55;;;;;;;32.28;23.92;100396.69;4970869;28;20836;-80
2022/08/15 11:37:29;;;;;;;11.05;9.10;;;;;;;32.14;23.93;100394.41;4983880;28;20524;-81
2022/08/15 11:39:58;;;;;;;13.80;9.10;;;;;;;32.01;23.91;100389.28;4985331;28;20050;-79
2022/08/15 11:42:29;;;;;;;10.55;8.90;;;;;;;32.03;24.65;100383.75;4999597;28;20042;-80
2022/08/15 11:45:09;;;;;;;9.88;8.23;;;;;;;31.96;24.78;100391.53;4981529;28;20042;-80
2022/08/15 11:47:43;;;;;;;12.50;7.38;;;;;;;31.62;25.43;100394.53;4983759;28;20069;-81
2022/08/15 11:50:30;;;;;;;8.07;6.95;;;;;;;31.25;25.53;100380.66;4982098;28;20087;-81
2022/08/15 11:53:06;;;;;;;7.13;6.43;;;;;;;30.97;25.80;100375.97;4981353;28;20069;-80
2022/08/15 11:55:34;;;;;;;8.07;6.68;;;;;;;30.91;25.66;100388.94;4997350;28;20053;-81
2022/08/15 11:58:20;;;;;;;8.88;6.18;;;;;;;30.76;25.88;100384.88;4997207;28;20489;-81
2022/08/15 12:00:57;;;;;;;6.45;5.38;;;;;;;30.70;25.23;100393.44;4981610;28;20042;-80